Pacific Ruby — VRZD9 — position and weather

sailwx.info

Track history (hours):
 
Tides and Currents Weather Stations Pressure Air Temp Water Temp Dewpoint Dewpoint Depression Visibility Wind Speed Wind Dir Waves Ship Positions

Pacific Ruby

Last reported at 2017-Nov-18 22:58 UTC. Time now 2017-Dec-18 22:29 UTC.
Position S 31°56' E 029°49'.
Warning: this ship's position is 29 days out of date.

Length 323 m; draft 10.7 m.

Type: Cargo ship. MMSI: 477341000.

Date/timePositionNaut miles runAvg speedWind from/ knotsBaromVisibWave heightAir tempDewpointWater temp
2017-Nov-18 22:58S 31°56' E 029°49'715.1
2017-Nov-18 22:30S 31°52' E 029°55'714.8
2017-Nov-18 22:00S 31°47' E 030°01'714.6
2017-Nov-18 21:30S 31°42' E 030°08'714.9
2017-Nov-18 21:00S 31°37' E 030°14'714.1
2017-Nov-18 20:30S 31°31' E 030°20'5213.5
2017-Nov-18 16:40S 30°44' E 030°46'413.1
2017-Nov-18 16:22S 30°41' E 030°47'53 1.9
2017-Nov-17 11:57S 29°54' E 031°17'1 1.3
2017-Nov-17 11:30S 29°54' E 031°17'1 2.5
2017-Nov-17 11:00S 29°56' E 031°17'1 2.4
2017-Nov-17 10:30S 29°57' E 031°18'1 1.3
2017-Nov-17 10:00S 29°57' E 031°18'1 2.4
2017-Nov-17 09:30S 29°57' E 031°20'1 2.8
2017-Nov-17 09:00S 29°56' E 031°21'1 2.6
2017-Nov-17 08:30S 29°55' E 031°22'1 2.9
2017-Nov-17 08:00S 29°55' E 031°24'2 3.5
2017-Nov-17 07:30S 29°54' E 031°26'2 4.7
2017-Nov-17 07:00S 29°52' E 031°28'1 1.2
2017-Nov-17 06:30S 29°52' E 031°28'4 8.5
2017-Nov-17 06:00S 29°56' E 031°27'4 7.3
2017-Nov-17 05:30S 29°60' E 031°28'3 6.8
2017-Nov-17 05:00S 30°03' E 031°28'3 6.8
2017-Nov-17 04:30S 30°06' E 031°27'4 7.5
2017-Nov-17 04:00S 30°10' E 031°27'4 7.8
2017-Nov-17 03:30S 30°14' E 031°26'4 7.6
2017-Nov-17 03:00S 30°18' E 031°25'4 7.4
2017-Nov-17 02:30S 30°21' E 031°22'4 7.5
2017-Nov-17 02:00S 30°24' E 031°20'2 3.7
2017-Nov-17 01:30S 30°25' E 031°18'3 6.2
2017-Nov-17 01:00S 30°22' E 031°20'3 6.4
2017-Nov-17 00:30S 30°20' E 031°23'3 6.5
2017-Nov-17 00:01S 30°17' E 031°25'3 6.2
2017-Nov-16 23:28S 30°15' E 031°27'3 6.1
2017-Nov-16 23:00S 30°13' E 031°29'3 5.6
2017-Nov-16 22:31S 30°11' E 031°32'3 5.8
2017-Nov-16 22:01S 30°08' E 031°34'3 5.6
2017-Nov-16 21:31S 30°06' E 031°36'3 5.6
2017-Nov-16 21:00S 30°04' E 031°38'3 5.3
2017-Nov-16 20:30S 30°02' E 031°40'3 5.2
2017-Nov-16 20:00S 30°01' E 031°42'3 5.0
2017-Nov-16 19:30S 29°59' E 031°44'3 5.1
2017-Nov-16 19:00S 29°57' E 031°46'3 5.2
2017-Nov-16 18:30S 29°55' E 031°48'3 5.4
2017-Nov-16 18:00S 29°53' E 031°51'3 5.7
2017-Nov-16 17:30S 29°51' E 031°53'6 5.2
2017-Nov-16 16:16S 29°46' E 031°57'1 4.7
2017-Nov-16 15:58S 29°45' E 031°58'2 5.3
2017-Nov-16 15:30S 29°43' E 031°60'3 5.0
2017-Nov-16 15:00S 29°41' E 032°02'3 5.4
2017-Nov-16 14:30S 29°38' E 032°03'3 5.4
2017-Nov-16 14:00S 29°36' E 032°05'2 4.9
2017-Nov-16 13:30S 29°34' E 032°06'3 5.5
2017-Nov-16 12:59S 29°31' E 032°07'14 0.7
2017-Nov-15 18:27S 29°44' E 032°02'3 7.8
2017-Nov-15 18:00S 29°47' E 031°59'4 7.9
2017-Nov-15 17:29S 29°50' E 031°56'4 7.6
2017-Nov-15 17:00S 29°53' E 031°54'4 7.6
2017-Nov-15 16:30S 29°55' E 031°51'4 7.2
2017-Nov-15 16:00S 29°58' E 031°48'2 3.0
2017-Nov-15 15:27S 29°57' E 031°46'1 2.6
2017-Nov-15 14:59S 29°57' E 031°45'1 2.6
2017-Nov-15 14:30S 29°56' E 031°44'1 2.5
2017-Nov-15 14:00S 29°55' E 031°43'1 2.1
2017-Nov-15 13:31S 29°54' E 031°42'1 2.3
2017-Nov-15 13:01S 29°54' E 031°41'2 3.5
2017-Nov-15 12:31S 29°52' E 031°40'510.2
2017-Nov-15 12:00S 29°52' E 031°34'612.5
2017-Nov-15 11:31S 29°52' E 031°27'611.4
2017-Nov-15 11:01S 29°52' E 031°20'2 3.9
2017-Nov-15 10:31S 29°54' E 031°21'2 3.1
2017-Nov-15 10:00S 29°56' E 031°21'2 3.9
2017-Nov-15 09:31S 29°58' E 031°21'611.5
2017-Nov-15 09:00S 30°01' E 031°15'713.0
2017-Nov-15 08:30S 30°06' E 031°11'713.9
2017-Nov-15 08:00S 30°13' E 031°10'611.4
2017-Nov-15 07:30S 30°19' E 031°10'3 5.0
2017-Nov-15 06:59S 30°21' E 031°11'1 2.7
2017-Nov-15 06:29S 30°21' E 031°13'2 3.1
2017-Nov-15 06:00S 30°20' E 031°15'2 3.4
2017-Nov-15 05:30S 30°20' E 031°17'2 3.4
2017-Nov-15 05:00S 30°19' E 031°18'2 3.5
2017-Nov-15 04:30S 30°18' E 031°20'2 3.5
2017-Nov-15 04:00S 30°17' E 031°22'2 3.5
2017-Nov-15 03:30S 30°16' E 031°24'2 3.5
2017-Nov-15 03:00S 30°16' E 031°26'2 3.0
2017-Nov-15 02:21S 30°15' E 031°28'1 2.8
2017-Nov-15 01:54S 30°14' E 031°29'1 2.7
2017-Nov-15 01:30S 30°14' E 031°30'1 2.5
2017-Nov-15 01:00S 30°13' E 031°31'1 2.2
2017-Nov-15 00:30S 30°13' E 031°33'1 2.0
2017-Nov-15 00:00S 30°13' E 031°34'1 1.9
2017-Nov-14 23:30S 30°13' E 031°35'1 1.5
2017-Nov-14 23:00S 30°12' E 031°35'1 1.3
2017-Nov-14 22:27S 30°11' E 031°35'1 1.7
2017-Nov-14 22:00S 30°11' E 031°36'1 1.9
2017-Nov-14 21:30S 30°10' E 031°35'1 2.0
2017-Nov-14 20:54S 30°08' E 031°35'1 2.2
2017-Nov-14 20:30S 30°08' E 031°35'1 2.7
2017-Nov-14 20:00S 30°06' E 031°36'2 3.4
2017-Nov-14 19:30S 30°05' E 031°37'2 3.3
2017-Nov-14 19:00S 30°03' E 031°38'2 2.9
2017-Nov-14 18:29S 30°02' E 031°38'2 4.4
2017-Nov-14 18:00S 29°60' E 031°37'611.2
2017-Nov-14 17:30S 29°56' E 031°33'611.8
2017-Nov-14 17:00S 29°51' E 031°28'611.2
2017-Nov-14 16:30S 29°48' E 031°24'1 1.3
2017-Nov-14 15:59S 29°48' E 031°23'1 1.5
2017-Nov-14 15:29S 29°49' E 031°24'1 1.3
2017-Nov-14 14:55S 29°49' E 031°24'1 1.2
2017-Nov-14 14:28S 29°49' E 031°25'1 1.2
2017-Nov-14 13:58S 29°50' E 031°25'1 1.2
2017-Nov-14 13:28S 29°50' E 031°26'1 1.7
2017-Nov-14 12:55S 29°51' E 031°25'2 5.5
2017-Nov-14 12:30S 29°50' E 031°22'611.2
2017-Nov-14 12:00S 29°45' E 031°25'713.9
2017-Nov-14 11:30S 29°40' E 031°31'714.3
2017-Nov-14 11:00S 29°35' E 031°36'714.5
2017-Nov-14 10:30S 29°29' E 031°42'714.4
2017-Nov-14 10:00S 29°24' E 031°48'714.3
2017-Nov-14 09:31S 29°19' E 031°53'714.6
2017-Nov-14 09:00S 29°14' E 031°59'715.0
2017-Nov-14 08:30S 29°08' E 032°05'916.7
2017-Nov-14 07:59S 29°04' E 032°14'816.8
2017-Nov-14 07:30S 28°59' E 032°21'1016.7
2017-Nov-14 06:56S 28°52' E 032°28'716.6
2017-Nov-14 06:30S 28°47' E 032°34'  
Track history (hours):
 
Tides and Currents Weather Stations Pressure Air Temp Water Temp Dewpoint Dewpoint Depression Visibility Wind Speed Wind Dir Waves Ship Positions

Pacific Ruby

Last reported at 2017-Nov-18 22:58 UTC. Time now 2017-Dec-18 22:29 UTC.
Position S 31°56' E 029°49'.
Warning: this ship's position is 29 days out of date.

Length 323 m; draft 10.7 m.

Type: Cargo ship. MMSI: 477341000.

Date/timePositionNaut miles runAvg speedWind from/ knotsBaromVisibWave heightAir tempDewpointWater temp
2017-Nov-18 22:58S 31°56' E 029°49'715.1
2017-Nov-18 22:30S 31°52' E 029°55'714.8
2017-Nov-18 22:00S 31°47' E 030°01'714.6
2017-Nov-18 21:30S 31°42' E 030°08'714.9
2017-Nov-18 21:00S 31°37' E 030°14'714.1
2017-Nov-18 20:30S 31°31' E 030°20'5213.5
2017-Nov-18 16:40S 30°44' E 030°46'413.1
2017-Nov-18 16:22S 30°41' E 030°47'53 1.9
2017-Nov-17 11:57S 29°54' E 031°17'1 1.3
2017-Nov-17 11:30S 29°54' E 031°17'1 2.5
2017-Nov-17 11:00S 29°56' E 031°17'1 2.4
2017-Nov-17 10:30S 29°57' E 031°18'1 1.3
2017-Nov-17 10:00S 29°57' E 031°18'1 2.4
2017-Nov-17 09:30S 29°57' E 031°20'1 2.8
2017-Nov-17 09:00S 29°56' E 031°21'1 2.6
2017-Nov-17 08:30S 29°55' E 031°22'1 2.9
2017-Nov-17 08:00S 29°55' E 031°24'2 3.5
2017-Nov-17 07:30S 29°54' E 031°26'2 4.7
2017-Nov-17 07:00S 29°52' E 031°28'1 1.2
2017-Nov-17 06:30S 29°52' E 031°28'4 8.5
2017-Nov-17 06:00S 29°56' E 031°27'4 7.3
2017-Nov-17 05:30S 29°60' E 031°28'3 6.8
2017-Nov-17 05:00S 30°03' E 031°28'3 6.8
2017-Nov-17 04:30S 30°06' E 031°27'4 7.5
2017-Nov-17 04:00S 30°10' E 031°27'4 7.8
2017-Nov-17 03:30S 30°14' E 031°26'4 7.6
2017-Nov-17 03:00S 30°18' E 031°25'4 7.4
2017-Nov-17 02:30S 30°21' E 031°22'4 7.5
2017-Nov-17 02:00S 30°24' E 031°20'2 3.7
2017-Nov-17 01:30S 30°25' E 031°18'3 6.2
2017-Nov-17 01:00S 30°22' E 031°20'3 6.4
2017-Nov-17 00:30S 30°20' E 031°23'3 6.5
2017-Nov-17 00:01S 30°17' E 031°25'3 6.2
2017-Nov-16 23:28S 30°15' E 031°27'3 6.1
2017-Nov-16 23:00S 30°13' E 031°29'3 5.6
2017-Nov-16 22:31S 30°11' E 031°32'3 5.8
2017-Nov-16 22:01S 30°08' E 031°34'3 5.6
2017-Nov-16 21:31S 30°06' E 031°36'3 5.6
2017-Nov-16 21:00S 30°04' E 031°38'3 5.3
2017-Nov-16 20:30S 30°02' E 031°40'3 5.2
2017-Nov-16 20:00S 30°01' E 031°42'3 5.0
2017-Nov-16 19:30S 29°59' E 031°44'3 5.1
2017-Nov-16 19:00S 29°57' E 031°46'3 5.2
2017-Nov-16 18:30S 29°55' E 031°48'3 5.4
2017-Nov-16 18:00S 29°53' E 031°51'3 5.7
2017-Nov-16 17:30S 29°51' E 031°53'6 5.2
2017-Nov-16 16:16S 29°46' E 031°57'1 4.7
2017-Nov-16 15:58S 29°45' E 031°58'2 5.3
2017-Nov-16 15:30S 29°43' E 031°60'3 5.0
2017-Nov-16 15:00S 29°41' E 032°02'3 5.4
2017-Nov-16 14:30S 29°38' E 032°03'3 5.4
2017-Nov-16 14:00S 29°36' E 032°05'2 4.9
2017-Nov-16 13:30S 29°34' E 032°06'3 5.5
2017-Nov-16 12:59S 29°31' E 032°07'14 0.7
2017-Nov-15 18:27S 29°44' E 032°02'3 7.8
2017-Nov-15 18:00S 29°47' E 031°59'4 7.9
2017-Nov-15 17:29S 29°50' E 031°56'4 7.6
2017-Nov-15 17:00S 29°53' E 031°54'4 7.6
2017-Nov-15 16:30S 29°55' E 031°51'4 7.2
2017-Nov-15 16:00S 29°58' E 031°48'2 3.0
2017-Nov-15 15:27S 29°57' E 031°46'1 2.6
2017-Nov-15 14:59S 29°57' E 031°45'1 2.6
2017-Nov-15 14:30S 29°56' E 031°44'1 2.5
2017-Nov-15 14:00S 29°55' E 031°43'1 2.1
2017-Nov-15 13:31S 29°54' E 031°42'1 2.3
2017-Nov-15 13:01S 29°54' E 031°41'2 3.5
2017-Nov-15 12:31S 29°52' E 031°40'510.2
2017-Nov-15 12:00S 29°52' E 031°34'612.5
2017-Nov-15 11:31S 29°52' E 031°27'611.4
2017-Nov-15 11:01S 29°52' E 031°20'2 3.9
2017-Nov-15 10:31S 29°54' E 031°21'2 3.1
2017-Nov-15 10:00S 29°56' E 031°21'2 3.9
2017-Nov-15 09:31S 29°58' E 031°21'611.5
2017-Nov-15 09:00S 30°01' E 031°15'713.0
2017-Nov-15 08:30S 30°06' E 031°11'713.9
2017-Nov-15 08:00S 30°13' E 031°10'611.4
2017-Nov-15 07:30S 30°19' E 031°10'3 5.0
2017-Nov-15 06:59S 30°21' E 031°11'1 2.7
2017-Nov-15 06:29S 30°21' E 031°13'2 3.1
2017-Nov-15 06:00S 30°20' E 031°15'2 3.4
2017-Nov-15 05:30S 30°20' E 031°17'2 3.4
2017-Nov-15 05:00S 30°19' E 031°18'2 3.5
2017-Nov-15 04:30S 30°18' E 031°20'2 3.5
2017-Nov-15 04:00S 30°17' E 031°22'2 3.5
2017-Nov-15 03:30S 30°16' E 031°24'2 3.5
2017-Nov-15 03:00S 30°16' E 031°26'2 3.0
2017-Nov-15 02:21S 30°15' E 031°28'1 2.8
2017-Nov-15 01:54S 30°14' E 031°29'1 2.7
2017-Nov-15 01:30S 30°14' E 031°30'1 2.5
2017-Nov-15 01:00S 30°13' E 031°31'1 2.2
2017-Nov-15 00:30S 30°13' E 031°33'1 2.0
2017-Nov-15 00:00S 30°13' E 031°34'1 1.9
2017-Nov-14 23:30S 30°13' E 031°35'1 1.5
2017-Nov-14 23:00S 30°12' E 031°35'1 1.3
2017-Nov-14 22:27S 30°11' E 031°35'1 1.7
2017-Nov-14 22:00S 30°11' E 031°36'1 1.9
2017-Nov-14 21:30S 30°10' E 031°35'1 2.0
2017-Nov-14 20:54S 30°08' E 031°35'1 2.2
2017-Nov-14 20:30S 30°08' E 031°35'1 2.7
2017-Nov-14 20:00S 30°06' E 031°36'2 3.4
2017-Nov-14 19:30S 30°05' E 031°37'2 3.3
2017-Nov-14 19:00S 30°03' E 031°38'2 2.9
2017-Nov-14 18:29S 30°02' E 031°38'2 4.4
2017-Nov-14 18:00S 29°60' E 031°37'611.2
2017-Nov-14 17:30S 29°56' E 031°33'611.8
2017-Nov-14 17:00S 29°51' E 031°28'611.2
2017-Nov-14 16:30S 29°48' E 031°24'1 1.3
2017-Nov-14 15:59S 29°48' E 031°23'1 1.5
2017-Nov-14 15:29S 29°49' E 031°24'1 1.3
2017-Nov-14 14:55S 29°49' E 031°24'1 1.2
2017-Nov-14 14:28S 29°49' E 031°25'1 1.2
2017-Nov-14 13:58S 29°50' E 031°25'1 1.2
2017-Nov-14 13:28S 29°50' E 031°26'1 1.7
2017-Nov-14 12:55S 29°51' E 031°25'2 5.5
2017-Nov-14 12:30S 29°50' E 031°22'611.2
2017-Nov-14 12:00S 29°45' E 031°25'713.9
2017-Nov-14 11:30S 29°40' E 031°31'714.3
2017-Nov-14 11:00S 29°35' E 031°36'714.5
2017-Nov-14 10:30S 29°29' E 031°42'714.4
2017-Nov-14 10:00S 29°24' E 031°48'714.3
2017-Nov-14 09:31S 29°19' E 031°53'714.6
2017-Nov-14 09:00S 29°14' E 031°59'715.0
2017-Nov-14 08:30S 29°08' E 032°05'916.7
2017-Nov-14 07:59S 29°04' E 032°14'816.8
2017-Nov-14 07:30S 28°59' E 032°21'1016.7
2017-Nov-14 06:56S 28°52' E 032°28'716.6
2017-Nov-14 06:30S 28°47' E 032°34'  

Dump ship's entire track history